sensor_id;sensor_type;location;lat;lon;timestamp;P1;durP1;ratioP1;P2;durP2;ratioP2
13291;SDS011;6714;53.056;8.690;2023-05-14T00:02:35;4.83;;;4.40;;
13291;SDS011;6714;53.056;8.690;2023-05-14T00:05:18;4.60;;;4.30;;
13291;SDS011;6714;53.056;8.690;2023-05-14T00:08:00;4.60;;;4.30;;
13291;SDS011;6714;53.056;8.690;2023-05-14T00:10:42;5.00;;;4.60;;
13291;SDS011;6714;53.056;8.690;2023-05-14T00:13:26;5.47;;;5.07;;
13291;SDS011;6714;53.056;8.690;2023-05-14T00:16:08;5.10;;;4.70;;
13291;SDS011;6714;53.056;8.690;2023-05-14T00:18:50;5.20;;;4.80;;
13291;SDS011;6714;53.056;8.690;2023-05-14T00:21:32;5.83;;;5.10;;
13291;SDS011;6714;53.056;8.690;2023-05-14T00:24:15;5.03;;;4.63;;
13291;SDS011;6714;53.056;8.690;2023-05-14T00:26:57;4.70;;;4.30;;
13291;SDS011;6714;53.056;8.690;2023-05-14T00:29:40;7.17;;;5.10;;
13291;SDS011;6714;53.056;8.690;2023-05-14T00:32:24;4.63;;;4.30;;
13291;SDS011;6714;53.056;8.690;2023-05-14T00:35:07;5.30;;;4.93;;
13291;SDS011;6714;53.056;8.690;2023-05-14T00:37:49;4.50;;;4.20;;
13291;SDS011;6714;53.056;8.690;2023-05-14T00:40:31;5.07;;;4.67;;
13291;SDS011;6714;53.056;8.690;2023-05-14T00:43:14;5.63;;;4.97;;
13291;SDS011;6714;53.056;8.690;2023-05-14T00:45:57;5.17;;;4.77;;
13291;SDS011;6714;53.056;8.690;2023-05-14T00:48:40;5.27;;;4.80;;
13291;SDS011;6714;53.056;8.690;2023-05-14T00:51:22;5.07;;;4.67;;
13291;SDS011;6714;53.056;8.690;2023-05-14T00:54:04;4.70;;;4.30;;
13291;SDS011;6714;53.056;8.690;2023-05-14T00:56:46;5.27;;;4.77;;
13291;SDS011;6714;53.056;8.690;2023-05-14T00:59:29;5.23;;;4.80;;
13291;SDS011;6714;53.056;8.690;2023-05-14T01:02:12;6.23;;;4.80;;
13291;SDS011;6714;53.056;8.690;2023-05-14T01:04:54;5.67;;;5.27;;
13291;SDS011;6714;53.056;8.690;2023-05-14T01:07:38;5.00;;;4.60;;
13291;SDS011;6714;53.056;8.690;2023-05-14T01:10:26;5.23;;;4.83;;
13291;SDS011;6714;53.056;8.690;2023-05-14T01:13:11;5.83;;;5.37;;
13291;SDS011;6714;53.056;8.690;2023-05-14T01:15:54;5.77;;;5.27;;
13291;SDS011;6714;53.056;8.690;2023-05-14T01:18:39;5.57;;;4.90;;
13291;SDS011;6714;53.056;8.690;2023-05-14T01:21:32;5.57;;;5.17;;
13291;SDS011;6714;53.056;8.690;2023-05-14T01:24:15;5.50;;;5.00;;
13291;SDS011;6714;53.056;8.690;2023-05-14T01:26:57;5.90;;;5.40;;
13291;SDS011;6714;53.056;8.690;2023-05-14T01:29:43;5.90;;;5.17;;
13291;SDS011;6714;53.056;8.690;2023-05-14T01:32:26;5.50;;;5.07;;
13291;SDS011;6714;53.056;8.690;2023-05-14T01:35:09;6.50;;;5.50;;
13291;SDS011;6714;53.056;8.690;2023-05-14T01:37:53;5.87;;;5.43;;
13291;SDS011;6714;53.056;8.690;2023-05-14T01:40:36;5.90;;;5.40;;
13291;SDS011;6714;53.056;8.690;2023-05-14T01:43:19;5.77;;;5.27;;
13291;SDS011;6714;53.056;8.690;2023-05-14T01:46:01;7.83;;;5.50;;
13291;SDS011;6714;53.056;8.690;2023-05-14T01:48:43;6.07;;;5.37;;
13291;SDS011;6714;53.056;8.690;2023-05-14T01:51:26;6.13;;;5.63;;
13291;SDS011;6714;53.056;8.690;2023-05-14T01:54:09;5.70;;;5.20;;
13291;SDS011;6714;53.056;8.690;2023-05-14T01:56:51;5.47;;;5.00;;
13291;SDS011;6714;53.056;8.690;2023-05-14T01:59:33;5.67;;;5.27;;
13291;SDS011;6714;53.056;8.690;2023-05-14T02:02:16;5.27;;;4.87;;
13291;SDS011;6714;53.056;8.690;2023-05-14T02:04:58;5.77;;;5.37;;
13291;SDS011;6714;53.056;8.690;2023-05-14T02:07:40;5.60;;;5.10;;
13291;SDS011;6714;53.056;8.690;2023-05-14T02:10:23;5.60;;;5.10;;
13291;SDS011;6714;53.056;8.690;2023-05-14T02:13:06;6.07;;;5.50;;
13291;SDS011;6714;53.056;8.690;2023-05-14T02:15:48;5.90;;;5.40;;
13291;SDS011;6714;53.056;8.690;2023-05-14T02:18:31;5.87;;;5.37;;
13291;SDS011;6714;53.056;8.690;2023-05-14T02:21:13;6.20;;;5.70;;
13291;SDS011;6714;53.056;8.690;2023-05-14T02:23:55;5.17;;;4.77;;
13291;SDS011;6714;53.056;8.690;2023-05-14T02:26:39;6.60;;;6.00;;
13291;SDS011;6714;53.056;8.690;2023-05-14T02:29:21;6.00;;;5.50;;
13291;SDS011;6714;53.056;8.690;2023-05-14T02:32:03;6.20;;;5.70;;
13291;SDS011;6714;53.056;8.690;2023-05-14T02:34:45;6.07;;;5.57;;
13291;SDS011;6714;53.056;8.690;2023-05-14T02:37:28;7.03;;;6.07;;
13291;SDS011;6714;53.056;8.690;2023-05-14T02:40:10;6.47;;;5.97;;
13291;SDS011;6714;53.056;8.690;2023-05-14T02:42:53;6.90;;;6.20;;
13291;SDS011;6714;53.056;8.690;2023-05-14T02:45:36;6.50;;;5.90;;
13291;SDS011;6714;53.056;8.690;2023-05-14T02:48:18;6.33;;;5.73;;
13291;SDS011;6714;53.056;8.690;2023-05-14T02:51:00;6.40;;;5.90;;
13291;SDS011;6714;53.056;8.690;2023-05-14T02:53:42;6.20;;;5.70;;
13291;SDS011;6714;53.056;8.690;2023-05-14T02:56:25;5.47;;;5.03;;
13291;SDS011;6714;53.056;8.690;2023-05-14T02:59:08;5.33;;;4.93;;
13291;SDS011;6714;53.056;8.690;2023-05-14T03:01:51;6.77;;;6.10;;
13291;SDS011;6714;53.056;8.690;2023-05-14T03:04:33;6.40;;;5.90;;
13291;SDS011;6714;53.056;8.690;2023-05-14T03:07:15;6.50;;;5.93;;
13291;SDS011;6714;53.056;8.690;2023-05-14T03:09:57;7.33;;;5.90;;
13291;SDS011;6714;53.056;8.690;2023-05-14T03:12:40;6.33;;;5.83;;
13291;SDS011;6714;53.056;8.690;2023-05-14T03:15:23;7.63;;;6.67;;
13291;SDS011;6714;53.056;8.690;2023-05-14T03:18:06;7.27;;;5.80;;
13291;SDS011;6714;53.056;8.690;2023-05-14T03:20:48;7.63;;;6.53;;
13291;SDS011;6714;53.056;8.690;2023-05-14T03:23:30;5.37;;;4.97;;
13291;SDS011;6714;53.056;8.690;2023-05-14T03:26:14;7.13;;;5.70;;
13291;SDS011;6714;53.056;8.690;2023-05-14T03:28:56;7.13;;;6.53;;
13291;SDS011;6714;53.056;8.690;2023-05-14T03:31:39;7.13;;;6.53;;
13291;SDS011;6714;53.056;8.690;2023-05-14T03:34:22;7.13;;;6.43;;
13291;SDS011;6714;53.056;8.690;2023-05-14T03:37:04;6.30;;;5.70;;
13291;SDS011;6714;53.056;8.690;2023-05-14T03:39:46;8.07;;;6.00;;
13291;SDS011;6714;53.056;8.690;2023-05-14T03:42:28;7.53;;;6.57;;
13291;SDS011;6714;53.056;8.690;2023-05-14T03:45:11;7.30;;;6.53;;
13291;SDS011;6714;53.056;8.690;2023-05-14T03:47:54;6.87;;;6.30;;
13291;SDS011;6714;53.056;8.690;2023-05-14T03:50:36;5.60;;;5.10;;
13291;SDS011;6714;53.056;8.690;2023-05-14T03:53:20;7.20;;;6.50;;
13291;SDS011;6714;53.056;8.690;2023-05-14T03:56:02;7.50;;;5.50;;
13291;SDS011;6714;53.056;8.690;2023-05-14T03:58:44;7.43;;;6.33;;
13291;SDS011;6714;53.056;8.690;2023-05-14T04:01:26;7.27;;;6.67;;
13291;SDS011;6714;53.056;8.690;2023-05-14T04:04:10;7.57;;;6.77;;
13291;SDS011;6714;53.056;8.690;2023-05-14T04:06:52;7.60;;;6.90;;
13291;SDS011;6714;53.056;8.690;2023-05-14T04:09:34;7.37;;;6.67;;
13291;SDS011;6714;53.056;8.690;2023-05-14T04:12:16;7.63;;;7.03;;
13291;SDS011;6714;53.056;8.690;2023-05-14T04:14:58;9.27;;;7.40;;
13291;SDS011;6714;53.056;8.690;2023-05-14T04:17:41;7.50;;;6.90;;
13291;SDS011;6714;53.056;8.690;2023-05-14T04:20:24;7.67;;;7.00;;
13291;SDS011;6714;53.056;8.690;2023-05-14T04:23:06;6.93;;;6.37;;
13291;SDS011;6714;53.056;8.690;2023-05-14T04:25:48;7.20;;;6.50;;
13291;SDS011;6714;53.056;8.690;2023-05-14T04:28:31;8.70;;;7.23;;
13291;SDS011;6714;53.056;8.690;2023-05-14T04:31:13;7.80;;;7.00;;
13291;SDS011;6714;53.056;8.690;2023-05-14T04:33:56;6.50;;;6.00;;
13291;SDS011;6714;53.056;8.690;2023-05-14T04:36:39;6.97;;;6.37;;
13291;SDS011;6714;53.056;8.690;2023-05-14T04:39:21;7.83;;;7.13;;
13291;SDS011;6714;53.056;8.690;2023-05-14T04:42:04;8.77;;;7.03;;
13291;SDS011;6714;53.056;8.690;2023-05-14T04:44:46;7.00;;;6.40;;
13291;SDS011;6714;53.056;8.690;2023-05-14T04:47:29;7.70;;;6.90;;
13291;SDS011;6714;53.056;8.690;2023-05-14T04:50:11;8.03;;;7.20;;
13291;SDS011;6714;53.056;8.690;2023-05-14T04:52:54;7.80;;;7.03;;
13291;SDS011;6714;53.056;8.690;2023-05-14T04:55:36;8.13;;;7.30;;
13291;SDS011;6714;53.056;8.690;2023-05-14T04:58:19;7.83;;;7.13;;
13291;SDS011;6714;53.056;8.690;2023-05-14T05:01:03;8.47;;;7.67;;
13291;SDS011;6714;53.056;8.690;2023-05-14T05:03:46;7.23;;;6.63;;
13291;SDS011;6714;53.056;8.690;2023-05-14T05:06:28;6.23;;;5.73;;
13291;SDS011;6714;53.056;8.690;2023-05-14T05:09:12;7.80;;;6.93;;
13291;SDS011;6714;53.056;8.690;2023-05-14T05:11:54;7.60;;;6.87;;
13291;SDS011;6714;53.056;8.690;2023-05-14T05:14:36;6.90;;;6.30;;
13291;SDS011;6714;53.056;8.690;2023-05-14T05:17:18;7.77;;;6.97;;
13291;SDS011;6714;53.056;8.690;2023-05-14T05:20:00;7.30;;;6.63;;
13291;SDS011;6714;53.056;8.690;2023-05-14T05:22:44;7.30;;;5.67;;
13291;SDS011;6714;53.056;8.690;2023-05-14T05:25:27;7.57;;;6.87;;
13291;SDS011;6714;53.056;8.690;2023-05-14T05:28:10;7.60;;;6.80;;
13291;SDS011;6714;53.056;8.690;2023-05-14T05:30:52;6.70;;;6.10;;
13291;SDS011;6714;53.056;8.690;2023-05-14T05:33:34;7.13;;;6.50;;
13291;SDS011;6714;53.056;8.690;2023-05-14T05:36:16;7.00;;;6.40;;
13291;SDS011;6714;53.056;8.690;2023-05-14T05:38:59;7.50;;;6.87;;
13291;SDS011;6714;53.056;8.690;2023-05-14T05:41:42;7.00;;;5.93;;
13291;SDS011;6714;53.056;8.690;2023-05-14T05:44:25;7.13;;;6.43;;
13291;SDS011;6714;53.056;8.690;2023-05-14T05:47:07;6.90;;;6.20;;
13291;SDS011;6714;53.056;8.690;2023-05-14T05:49:49;7.23;;;6.63;;
13291;SDS011;6714;53.056;8.690;2023-05-14T05:52:33;7.30;;;6.70;;
13291;SDS011;6714;53.056;8.690;2023-05-14T05:55:15;7.03;;;6.43;;
13291;SDS011;6714;53.056;8.690;2023-05-14T05:57:59;7.20;;;6.60;;
13291;SDS011;6714;53.056;8.690;2023-05-14T06:00:41;7.53;;;6.90;;
13291;SDS011;6714;53.056;8.690;2023-05-14T06:03:23;6.83;;;6.23;;
13291;SDS011;6714;53.056;8.690;2023-05-14T06:06:06;7.57;;;6.97;;
13291;SDS011;6714;53.056;8.690;2023-05-14T06:08:48;6.87;;;6.37;;
13291;SDS011;6714;53.056;8.690;2023-05-14T06:11:30;6.57;;;6.07;;
13291;SDS011;6714;53.056;8.690;2023-05-14T06:14:14;7.27;;;6.57;;
13291;SDS011;6714;53.056;8.690;2023-05-14T06:16:56;8.70;;;6.70;;
13291;SDS011;6714;53.056;8.690;2023-05-14T06:19:38;7.10;;;6.40;;
13291;SDS011;6714;53.056;8.690;2023-05-14T06:22:21;6.20;;;5.70;;
13291;SDS011;6714;53.056;8.690;2023-05-14T06:25:03;7.00;;;6.40;;
13291;SDS011;6714;53.056;8.690;2023-05-14T06:27:45;6.97;;;6.37;;
13291;SDS011;6714;53.056;8.690;2023-05-14T06:30:29;5.73;;;5.23;;
13291;SDS011;6714;53.056;8.690;2023-05-14T06:33:11;6.17;;;5.60;;
13291;SDS011;6714;53.056;8.690;2023-05-14T06:35:54;6.30;;;5.83;;
13291;SDS011;6714;53.056;8.690;2023-05-14T06:38:36;6.40;;;5.80;;
13291;SDS011;6714;53.056;8.690;2023-05-14T06:41:18;7.20;;;6.53;;
13291;SDS011;6714;53.056;8.690;2023-05-14T06:44:01;6.87;;;6.27;;
13291;SDS011;6714;53.056;8.690;2023-05-14T06:46:45;7.03;;;6.03;;
13291;SDS011;6714;53.056;8.690;2023-05-14T06:49:27;7.50;;;6.90;;
13291;SDS011;6714;53.056;8.690;2023-05-14T06:52:10;6.20;;;5.80;;
13291;SDS011;6714;53.056;8.690;2023-05-14T06:54:52;7.03;;;6.33;;
13291;SDS011;6714;53.056;8.690;2023-05-14T06:57:34;6.10;;;5.60;;
13291;SDS011;6714;53.056;8.690;2023-05-14T07:00:17;7.50;;;6.03;;
13291;SDS011;6714;53.056;8.690;2023-05-14T07:03:01;6.23;;;5.73;;
13291;SDS011;6714;53.056;8.690;2023-05-14T07:05:43;6.70;;;6.20;;
13291;SDS011;6714;53.056;8.690;2023-05-14T07:08:25;5.90;;;5.50;;
13291;SDS011;6714;53.056;8.690;2023-05-14T07:11:08;6.43;;;5.80;;
13291;SDS011;6714;53.056;8.690;2023-05-14T07:13:50;5.93;;;5.43;;
13291;SDS011;6714;53.056;8.690;2023-05-14T07:16:33;6.00;;;5.50;;
13291;SDS011;6714;53.056;8.690;2023-05-14T07:19:16;5.70;;;5.30;;
13291;SDS011;6714;53.056;8.690;2023-05-14T07:21:58;5.30;;;4.90;;
13291;SDS011;6714;53.056;8.690;2023-05-14T07:24:41;6.63;;;6.03;;
13291;SDS011;6714;53.056;8.690;2023-05-14T07:27:23;5.77;;;5.33;;
13291;SDS011;6714;53.056;8.690;2023-05-14T07:30:06;6.20;;;5.60;;
13291;SDS011;6714;53.056;8.690;2023-05-14T07:32:48;5.53;;;5.13;;
13291;SDS011;6714;53.056;8.690;2023-05-14T07:35:32;5.50;;;5.00;;
13291;SDS011;6714;53.056;8.690;2023-05-14T07:38:14;5.60;;;5.20;;
13291;SDS011;6714;53.056;8.690;2023-05-14T07:40:57;5.53;;;5.13;;
13291;SDS011;6714;53.056;8.690;2023-05-14T07:43:39;4.67;;;4.27;;
13291;SDS011;6714;53.056;8.690;2023-05-14T07:46:21;5.07;;;4.67;;
13291;SDS011;6714;53.056;8.690;2023-05-14T07:49:05;3.97;;;3.70;;
13291;SDS011;6714;53.056;8.690;2023-05-14T07:51:48;4.60;;;4.20;;
13291;SDS011;6714;53.056;8.690;2023-05-14T07:54:31;4.40;;;4.10;;
13291;SDS011;6714;53.056;8.690;2023-05-14T07:57:14;4.70;;;4.30;;
13291;SDS011;6714;53.056;8.690;2023-05-14T07:59:56;5.30;;;4.80;;
13291;SDS011;6714;53.056;8.690;2023-05-14T08:02:38;4.73;;;4.33;;
13291;SDS011;6714;53.056;8.690;2023-05-14T08:05:21;4.93;;;4.53;;
13291;SDS011;6714;53.056;8.690;2023-05-14T08:08:07;4.30;;;4.00;;
13291;SDS011;6714;53.056;8.690;2023-05-14T08:10:49;4.67;;;4.27;;
13291;SDS011;6714;53.056;8.690;2023-05-14T08:13:31;3.77;;;3.57;;
13291;SDS011;6714;53.056;8.690;2023-05-14T08:16:14;4.60;;;4.20;;
13291;SDS011;6714;53.056;8.690;2023-05-14T08:18:56;3.87;;;3.57;;
13291;SDS011;6714;53.056;8.690;2023-05-14T08:21:38;4.50;;;4.20;;
13291;SDS011;6714;53.056;8.690;2023-05-14T08:24:22;4.20;;;3.90;;
13291;SDS011;6714;53.056;8.690;2023-05-14T08:27:04;3.83;;;3.60;;
13291;SDS011;6714;53.056;8.690;2023-05-14T08:29:47;4.17;;;3.87;;
13291;SDS011;6714;53.056;8.690;2023-05-14T08:32:29;3.73;;;3.43;;
13291;SDS011;6714;53.056;8.690;2023-05-14T08:35:11;3.50;;;3.30;;
13291;SDS011;6714;53.056;8.690;2023-05-14T08:37:54;3.60;;;3.30;;
13291;SDS011;6714;53.056;8.690;2023-05-14T08:40:40;3.20;;;3.10;;
13291;SDS011;6714;53.056;8.690;2023-05-14T08:43:24;3.73;;;3.53;;
13291;SDS011;6714;53.056;8.690;2023-05-14T08:46:08;3.87;;;3.57;;
13291;SDS011;6714;53.056;8.690;2023-05-14T08:48:55;3.40;;;3.20;;
13291;SDS011;6714;53.056;8.690;2023-05-14T08:51:38;3.90;;;3.60;;
13291;SDS011;6714;53.056;8.690;2023-05-14T08:54:20;3.70;;;3.40;;
13291;SDS011;6714;53.056;8.690;2023-05-14T08:57:05;3.60;;;3.40;;
13291;SDS011;6714;53.056;8.690;2023-05-14T08:59:50;3.40;;;3.20;;
13291;SDS011;6714;53.056;8.690;2023-05-14T09:02:33;3.33;;;3.13;;
13291;SDS011;6714;53.056;8.690;2023-05-14T09:05:16;3.57;;;3.27;;
13291;SDS011;6714;53.056;8.690;2023-05-14T09:07:58;3.47;;;3.17;;
13291;SDS011;6714;53.056;8.690;2023-05-14T09:10:40;3.70;;;3.50;;
13291;SDS011;6714;53.056;8.690;2023-05-14T09:13:24;3.63;;;3.33;;
13291;SDS011;6714;53.056;8.690;2023-05-14T09:16:06;3.43;;;3.23;;
13291;SDS011;6714;53.056;8.690;2023-05-14T09:18:48;3.30;;;3.00;;
13291;SDS011;6714;53.056;8.690;2023-05-14T09:21:32;3.00;;;2.83;;
13291;SDS011;6714;53.056;8.690;2023-05-14T09:24:18;3.67;;;3.47;;
13291;SDS011;6714;53.056;8.690;2023-05-14T09:27:01;3.07;;;2.87;;
13291;SDS011;6714;53.056;8.690;2023-05-14T09:29:44;3.07;;;2.97;;
13291;SDS011;6714;53.056;8.690;2023-05-14T09:32:27;3.40;;;3.10;;
13291;SDS011;6714;53.056;8.690;2023-05-14T09:35:17;3.30;;;3.10;;
13291;SDS011;6714;53.056;8.690;2023-05-14T09:37:59;3.40;;;3.20;;
13291;SDS011;6714;53.056;8.690;2023-05-14T09:40:42;2.95;;;2.83;;
13291;SDS011;6714;53.056;8.690;2023-05-14T09:43:24;3.15;;;2.95;;
13291;SDS011;6714;53.056;8.690;2023-05-14T09:46:08;3.20;;;3.00;;
13291;SDS011;6714;53.056;8.690;2023-05-14T09:48:50;2.60;;;2.50;;
13291;SDS011;6714;53.056;8.690;2023-05-14T09:51:33;3.20;;;2.90;;
13291;SDS011;6714;53.056;8.690;2023-05-14T09:54:15;3.00;;;2.90;;
13291;SDS011;6714;53.056;8.690;2023-05-14T09:56:58;2.90;;;2.70;;
13291;SDS011;6714;53.056;8.690;2023-05-14T09:59:40;3.30;;;3.10;;
13291;SDS011;6714;53.056;8.690;2023-05-14T10:02:24;2.80;;;2.65;;
13291;SDS011;6714;53.056;8.690;2023-05-14T10:05:08;3.13;;;2.92;;
13291;SDS011;6714;53.056;8.690;2023-05-14T10:07:52;3.03;;;2.83;;
13291;SDS011;6714;53.056;8.690;2023-05-14T10:10:35;2.80;;;2.70;;
13291;SDS011;6714;53.056;8.690;2023-05-14T10:13:19;3.00;;;2.90;;
13291;SDS011;6714;53.056;8.690;2023-05-14T10:16:03;2.90;;;2.70;;
13291;SDS011;6714;53.056;8.690;2023-05-14T10:18:51;2.70;;;2.60;;
13291;SDS011;6714;53.056;8.690;2023-05-14T10:21:35;2.70;;;2.60;;
13291;SDS011;6714;53.056;8.690;2023-05-14T10:24:17;2.70;;;2.53;;
13291;SDS011;6714;53.056;8.690;2023-05-14T10:27:00;2.88;;;2.70;;
13291;SDS011;6714;53.056;8.690;2023-05-14T10:29:42;2.67;;;2.58;;
13291;SDS011;6714;53.056;8.690;2023-05-14T10:32:29;2.67;;;2.47;;
13291;SDS011;6714;53.056;8.690;2023-05-14T10:35:17;2.67;;;2.58;;
13291;SDS011;6714;53.056;8.690;2023-05-14T10:38:06;2.55;;;2.45;;
13291;SDS011;6714;53.056;8.690;2023-05-14T10:40:48;2.45;;;2.35;;
13291;SDS011;6714;53.056;8.690;2023-05-14T10:43:36;2.42;;;2.33;;
13291;SDS011;6714;53.056;8.690;2023-05-14T10:46:18;2.38;;;2.28;;
13291;SDS011;6714;53.056;8.690;2023-05-14T10:49:00;2.47;;;2.35;;
13291;SDS011;6714;53.056;8.690;2023-05-14T10:51:45;2.63;;;2.53;;
13291;SDS011;6714;53.056;8.690;2023-05-14T10:54:29;2.80;;;2.60;;
13291;SDS011;6714;53.056;8.690;2023-05-14T10:57:11;2.90;;;2.80;;
13291;SDS011;6714;53.056;8.690;2023-05-14T10:59:55;2.75;;;2.55;;
13291;SDS011;6714;53.056;8.690;2023-05-14T11:02:38;2.72;;;2.53;;
13291;SDS011;6714;53.056;8.690;2023-05-14T11:05:20;2.90;;;2.70;;
13291;SDS011;6714;53.056;8.690;2023-05-14T11:08:08;2.70;;;2.47;;
13291;SDS011;6714;53.056;8.690;2023-05-14T11:10:50;2.40;;;2.30;;
13291;SDS011;6714;53.056;8.690;2023-05-14T11:13:33;2.40;;;2.30;;
13291;SDS011;6714;53.056;8.690;2023-05-14T11:16:15;2.50;;;2.40;;
13291;SDS011;6714;53.056;8.690;2023-05-14T11:19:02;2.70;;;2.60;;
13291;SDS011;6714;53.056;8.690;2023-05-14T11:21:44;2.65;;;2.45;;
13291;SDS011;6714;53.056;8.690;2023-05-14T11:24:28;2.30;;;2.20;;
13291;SDS011;6714;53.056;8.690;2023-05-14T11:27:10;2.53;;;2.33;;
13291;SDS011;6714;53.056;8.690;2023-05-14T11:29:53;2.50;;;2.30;;
13291;SDS011;6714;53.056;8.690;2023-05-14T11:32:37;2.75;;;2.55;;
13291;SDS011;6714;53.056;8.690;2023-05-14T11:35:19;2.70;;;2.60;;
13291;SDS011;6714;53.056;8.690;2023-05-14T11:38:01;2.60;;;2.50;;
13291;SDS011;6714;53.056;8.690;2023-05-14T11:40:51;2.40;;;2.30;;
13291;SDS011;6714;53.056;8.690;2023-05-14T11:43:33;2.60;;;2.40;;
13291;SDS011;6714;53.056;8.690;2023-05-14T11:46:17;2.20;;;2.10;;
13291;SDS011;6714;53.056;8.690;2023-05-14T11:49:02;2.85;;;2.65;;
13291;SDS011;6714;53.056;8.690;2023-05-14T11:51:45;2.75;;;2.63;;
13291;SDS011;6714;53.056;8.690;2023-05-14T11:54:28;2.20;;;2.10;;
13291;SDS011;6714;53.056;8.690;2023-05-14T11:57:12;2.28;;;2.17;;
13291;SDS011;6714;53.056;8.690;2023-05-14T11:59:55;2.25;;;2.15;;
13291;SDS011;6714;53.056;8.690;2023-05-14T12:02:37;2.30;;;2.20;;
13291;SDS011;6714;53.056;8.690;2023-05-14T12:05:20;2.40;;;2.30;;
13291;SDS011;6714;53.056;8.690;2023-05-14T12:08:02;2.70;;;2.50;;
13291;SDS011;6714;53.056;8.690;2023-05-14T12:10:44;2.33;;;2.13;;
13291;SDS011;6714;53.056;8.690;2023-05-14T12:13:28;2.30;;;2.20;;
13291;SDS011;6714;53.056;8.690;2023-05-14T12:16:10;2.47;;;2.33;;
13291;SDS011;6714;53.056;8.690;2023-05-14T12:18:53;2.58;;;2.45;;
13291;SDS011;6714;53.056;8.690;2023-05-14T12:21:36;2.30;;;2.20;;
13291;SDS011;6714;53.056;8.690;2023-05-14T12:24:18;2.20;;;2.10;;
13291;SDS011;6714;53.056;8.690;2023-05-14T12:27:01;2.40;;;2.30;;
13291;SDS011;6714;53.056;8.690;2023-05-14T12:29:45;2.50;;;2.40;;
13291;SDS011;6714;53.056;8.690;2023-05-14T12:32:28;2.47;;;2.38;;
13291;SDS011;6714;53.056;8.690;2023-05-14T12:35:12;2.40;;;2.30;;
13291;SDS011;6714;53.056;8.690;2023-05-14T12:37:54;2.78;;;2.60;;
13291;SDS011;6714;53.056;8.690;2023-05-14T12:40:36;2.30;;;2.20;;
13291;SDS011;6714;53.056;8.690;2023-05-14T12:43:19;2.50;;;2.40;;
13291;SDS011;6714;53.056;8.690;2023-05-14T12:46:02;2.53;;;2.40;;
13291;SDS011;6714;53.056;8.690;2023-05-14T12:48:44;2.40;;;2.20;;
13291;SDS011;6714;53.056;8.690;2023-05-14T12:51:27;2.60;;;2.40;;
13291;SDS011;6714;53.056;8.690;2023-05-14T12:54:10;2.70;;;2.60;;
13291;SDS011;6714;53.056;8.690;2023-05-14T12:56:52;2.40;;;2.30;;
13291;SDS011;6714;53.056;8.690;2023-05-14T12:59:35;2.70;;;2.45;;
13291;SDS011;6714;53.056;8.690;2023-05-14T13:02:18;3.92;;;2.50;;
13291;SDS011;6714;53.056;8.690;2023-05-14T13:05:01;2.40;;;2.30;;
13291;SDS011;6714;53.056;8.690;2023-05-14T13:07:43;2.20;;;2.10;;
13291;SDS011;6714;53.056;8.690;2023-05-14T13:10:25;2.70;;;2.50;;
13291;SDS011;6714;53.056;8.690;2023-05-14T13:13:07;2.20;;;2.10;;
13291;SDS011;6714;53.056;8.690;2023-05-14T13:15:50;2.10;;;2.00;;
13291;SDS011;6714;53.056;8.690;2023-05-14T13:18:36;2.92;;;2.63;;
13291;SDS011;6714;53.056;8.690;2023-05-14T13:21:18;2.33;;;2.13;;
13291;SDS011;6714;53.056;8.690;2023-05-14T13:24:00;2.45;;;2.35;;
13291;SDS011;6714;53.056;8.690;2023-05-14T13:26:42;2.35;;;2.22;;
13291;SDS011;6714;53.056;8.690;2023-05-14T13:29:25;4.13;;;2.60;;
13291;SDS011;6714;53.056;8.690;2023-05-14T13:32:08;2.78;;;2.67;;
13291;SDS011;6714;53.056;8.690;2023-05-14T13:34:52;2.70;;;2.50;;
13291;SDS011;6714;53.056;8.690;2023-05-14T13:37:34;2.67;;;2.47;;
13291;SDS011;6714;53.056;8.690;2023-05-14T13:40:16;2.90;;;2.40;;
13291;SDS011;6714;53.056;8.690;2023-05-14T13:42:58;2.45;;;2.35;;
13291;SDS011;6714;53.056;8.690;2023-05-14T13:45:41;2.50;;;2.40;;
13291;SDS011;6714;53.056;8.690;2023-05-14T13:48:23;2.30;;;2.20;;
13291;SDS011;6714;53.056;8.690;2023-05-14T13:51:07;2.10;;;2.00;;
13291;SDS011;6714;53.056;8.690;2023-05-14T13:53:49;2.15;;;2.05;;
13291;SDS011;6714;53.056;8.690;2023-05-14T13:56:32;2.33;;;2.22;;
13291;SDS011;6714;53.056;8.690;2023-05-14T13:59:14;2.30;;;2.20;;
13291;SDS011;6714;53.056;8.690;2023-05-14T14:01:56;4.05;;;2.78;;
13291;SDS011;6714;53.056;8.690;2023-05-14T14:04:38;2.60;;;2.40;;
13291;SDS011;6714;53.056;8.690;2023-05-14T14:07:22;2.30;;;2.20;;
13291;SDS011;6714;53.056;8.690;2023-05-14T14:10:05;2.30;;;2.10;;
13291;SDS011;6714;53.056;8.690;2023-05-14T14:12:47;2.55;;;2.38;;
13291;SDS011;6714;53.056;8.690;2023-05-14T14:15:29;2.65;;;2.45;;
13291;SDS011;6714;53.056;8.690;2023-05-14T14:18:12;2.50;;;2.40;;
13291;SDS011;6714;53.056;8.690;2023-05-14T14:20:54;2.70;;;2.50;;
13291;SDS011;6714;53.056;8.690;2023-05-14T14:23:37;2.33;;;2.13;;
13291;SDS011;6714;53.056;8.690;2023-05-14T14:26:19;2.60;;;2.40;;
13291;SDS011;6714;53.056;8.690;2023-05-14T14:29:02;2.38;;;2.28;;
13291;SDS011;6714;53.056;8.690;2023-05-14T14:31:44;2.50;;;2.30;;
13291;SDS011;6714;53.056;8.690;2023-05-14T14:34:27;2.90;;;2.60;;
13291;SDS011;6714;53.056;8.690;2023-05-14T14:37:09;2.50;;;2.40;;
13291;SDS011;6714;53.056;8.690;2023-05-14T14:39:53;2.47;;;2.38;;
13291;SDS011;6714;53.056;8.690;2023-05-14T14:42:35;2.88;;;2.40;;
13291;SDS011;6714;53.056;8.690;2023-05-14T14:45:18;2.30;;;2.20;;
13291;SDS011;6714;53.056;8.690;2023-05-14T14:51:01;2.50;;;2.38;;
13291;SDS011;6714;53.056;8.690;2023-05-14T14:53:43;2.30;;;2.20;;
13291;SDS011;6714;53.056;8.690;2023-05-14T14:56:26;2.40;;;2.30;;
13291;SDS011;6714;53.056;8.690;2023-05-14T14:59:09;2.90;;;2.70;;
13291;SDS011;6714;53.056;8.690;2023-05-14T15:01:51;2.60;;;2.40;;
13291;SDS011;6714;53.056;8.690;2023-05-14T15:04:33;3.53;;;2.80;;
13291;SDS011;6714;53.056;8.690;2023-05-14T15:07:17;2.60;;;2.50;;
13291;SDS011;6714;53.056;8.690;2023-05-14T15:10:01;2.60;;;2.50;;
13291;SDS011;6714;53.056;8.690;2023-05-14T15:12:44;2.90;;;2.70;;
13291;SDS011;6714;53.056;8.690;2023-05-14T15:15:27;3.00;;;2.80;;
13291;SDS011;6714;53.056;8.690;2023-05-14T15:18:09;2.83;;;2.63;;
13291;SDS011;6714;53.056;8.690;2023-05-14T15:20:52;3.10;;;2.80;;
13291;SDS011;6714;53.056;8.690;2023-05-14T15:23:34;2.63;;;2.53;;
13291;SDS011;6714;53.056;8.690;2023-05-14T15:26:17;2.80;;;2.70;;
13291;SDS011;6714;53.056;8.690;2023-05-14T15:29:01;3.15;;;2.97;;
13291;SDS011;6714;53.056;8.690;2023-05-14T15:31:44;3.17;;;2.75;;
13291;SDS011;6714;53.056;8.690;2023-05-14T15:34:26;3.05;;;2.85;;
13291;SDS011;6714;53.056;8.690;2023-05-14T15:37:09;3.30;;;3.10;;
13291;SDS011;6714;53.056;8.690;2023-05-14T15:39:51;3.30;;;3.00;;
13291;SDS011;6714;53.056;8.690;2023-05-14T15:42:33;2.60;;;2.50;;
13291;SDS011;6714;53.056;8.690;2023-05-14T15:45:17;3.50;;;2.90;;
13291;SDS011;6714;53.056;8.690;2023-05-14T15:48:00;3.55;;;3.25;;
13291;SDS011;6714;53.056;8.690;2023-05-14T15:50:42;3.20;;;3.00;;
13291;SDS011;6714;53.056;8.690;2023-05-14T15:53:24;2.88;;;2.63;;
13291;SDS011;6714;53.056;8.690;2023-05-14T15:56:06;3.30;;;3.00;;
13291;SDS011;6714;53.056;8.690;2023-05-14T15:58:49;3.15;;;3.00;;
13291;SDS011;6714;53.056;8.690;2023-05-14T16:01:33;3.92;;;3.63;;
13291;SDS011;6714;53.056;8.690;2023-05-14T16:04:16;3.60;;;3.30;;
13291;SDS011;6714;53.056;8.690;2023-05-14T16:07:00;3.40;;;3.10;;
13291;SDS011;6714;53.056;8.690;2023-05-14T16:09:43;3.72;;;3.42;;
13291;SDS011;6714;53.056;8.690;2023-05-14T16:12:25;3.45;;;3.25;;
13291;SDS011;6714;53.056;8.690;2023-05-14T16:15:08;3.42;;;3.13;;
13291;SDS011;6714;53.056;8.690;2023-05-14T16:17:52;3.53;;;3.28;;
13291;SDS011;6714;53.056;8.690;2023-05-14T16:20:34;3.28;;;3.08;;
13291;SDS011;6714;53.056;8.690;2023-05-14T16:23:16;3.45;;;3.25;;
13291;SDS011;6714;53.056;8.690;2023-05-14T16:25:58;3.30;;;3.10;;
13291;SDS011;6714;53.056;8.690;2023-05-14T16:28:40;3.38;;;3.17;;
13291;SDS011;6714;53.056;8.690;2023-05-14T16:31:23;3.63;;;3.42;;
13291;SDS011;6714;53.056;8.690;2023-05-14T16:34:06;4.03;;;3.28;;
13291;SDS011;6714;53.056;8.690;2023-05-14T16:36:49;3.60;;;3.40;;
13291;SDS011;6714;53.056;8.690;2023-05-14T16:39:31;3.75;;;3.55;;